Time;durP1;ratioP1;P1;durP2;ratioP2;P2;SDS_P1;SDS_P2;PMS_P1;PMS_P2;Temp;Humidity;BMP_temperature;BMP_pressure;BME280_temperature;BME280_humidity;BME280_pressure;Samples;Min_cycle;Max_cycle;Signal;HPM_P1;HPM_P2
2023/04/17 00:01:57;;;;;;;5.28;4.88;;;8.30;99.90;;;;;;5088792;28;20230;-85
2023/04/17 00:04:25;;;;;;;4.25;3.95;;;8.30;99.90;;;;;;5095941;28;20200;-86
2023/04/17 00:06:53;;;;;;;4.53;4.13;;;8.30;99.90;;;;;;5095486;28;20200;-85
2023/04/17 00:09:22;;;;;;;5.22;4.82;;;8.30;99.90;;;;;;5096413;28;20200;-86
2023/04/17 00:11:52;;;;;;;4.60;4.20;;;8.30;99.90;;;;;;5096466;28;20217;-87
2023/04/17 00:14:20;;;;;;;4.82;4.43;;;8.30;99.90;;;;;;5095773;28;20208;-87
2023/04/17 00:16:49;;;;;;;4.93;4.53;;;8.20;99.90;;;;;;5095248;28;20204;-86
2023/04/17 00:19:17;;;;;;;5.50;5.00;;;8.20;99.90;;;;;;5095663;28;20277;-87
2023/04/17 00:21:45;;;;;;;4.90;4.40;;;8.20;99.90;;;;;;5095629;28;20230;-86
2023/04/17 00:24:14;;;;;;;5.13;4.60;;;8.20;99.90;;;;;;5096000;28;20201;-86
2023/04/17 00:26:42;;;;;;;5.93;5.18;;;8.20;99.90;;;;;;5095250;28;20211;-85
2023/04/17 00:29:12;;;;;;;4.65;4.25;;;8.20;99.90;;;;;;5095639;28;20200;-86
2023/04/17 00:31:41;;;;;;;4.88;4.47;;;8.20;99.90;;;;;;5095680;28;20224;-85
2023/04/17 00:34:09;;;;;;;5.55;5.15;;;8.20;99.90;;;;;;5096760;28;20274;-85
2023/04/17 00:36:37;;;;;;;4.45;4.10;;;8.20;99.90;;;;;;5097460;28;20279;-86
2023/04/17 00:39:06;;;;;;;4.38;4.07;;;8.20;99.90;;;;;;5096688;28;20201;-85
2023/04/17 00:41:34;;;;;;;3.75;3.55;;;8.20;99.90;;;;;;5096233;28;20236;-85
2023/04/17 00:44:02;;;;;;;5.13;4.72;;;8.30;99.90;;;;;;5096811;28;20227;-86
2023/04/17 00:46:33;;;;;;;5.43;4.93;;;8.30;99.90;;;;;;5097042;28;20220;-86
2023/04/17 00:49:01;;;;;;;5.15;4.75;;;8.30;99.90;;;;;;5095036;28;20199;-84
2023/04/17 00:51:30;;;;;;;4.82;4.43;;;8.30;99.90;;;;;;5096215;28;20221;-85
2023/04/17 00:54:00;;;;;;;5.72;5.22;;;8.30;99.90;;;;;;5096907;28;20216;-85
2023/04/17 00:56:29;;;;;;;5.90;5.40;;;8.30;99.90;;;;;;5096782;28;20195;-86
2023/04/17 00:58:59;;;;;;;6.32;5.40;;;8.40;99.90;;;;;;5097224;28;20206;-85
2023/04/17 01:01:27;;;;;;;5.15;4.75;;;8.30;99.90;;;;;;5095207;28;20220;-85
2023/04/17 01:03:58;;;;;;;5.13;4.78;;;8.30;99.90;;;;;;5082526;28;20200;-85
2023/04/17 01:06:27;;;;;;;5.22;4.82;;;8.40;99.90;;;;;;5096986;28;20204;-85
2023/04/17 01:08:56;;;;;;;6.18;5.57;;;8.30;99.90;;;;;;5096244;28;20211;-85
2023/04/17 01:11:24;;;;;;;6.78;4.28;;;8.30;99.90;;;;;;5096506;28;20240;-85
2023/04/17 01:13:53;;;;;;;5.85;5.30;;;8.40;99.90;;;;;;5096400;28;20315;-86
2023/04/17 01:16:22;;;;;;;5.60;5.10;;;8.40;99.90;;;;;;5096602;28;20310;-85
2023/04/17 01:18:50;;;;;;;6.10;5.50;;;8.40;99.90;;;;;;5096352;28;20191;-85
2023/04/17 01:21:20;;;;;;;5.90;5.32;;;8.40;99.90;;;;;;5096542;28;20235;-86
2023/04/17 01:23:51;;;;;;;5.80;5.28;;;8.40;99.90;;;;;;5096222;28;20207;-86
2023/04/17 01:26:23;;;;;;;5.72;5.25;;;8.40;99.90;;;;;;5096938;28;20211;-86
2023/04/17 01:28:53;;;;;;;5.35;4.85;;;8.40;99.90;;;;;;5096409;28;20201;-86
2023/04/17 01:31:22;;;;;;;4.65;4.20;;;8.40;99.90;;;;;;5096453;28;20312;-86
2023/04/17 01:33:52;;;;;;;5.93;5.35;;;8.40;99.90;;;;;;5096332;28;20269;-87
2023/04/17 01:36:20;;;;;;;5.50;5.00;;;8.40;99.90;;;;;;5095761;28;20280;-84
2023/04/17 01:38:48;;;;;;;5.78;5.18;;;8.40;99.90;;;;;;5093739;28;20326;-86
2023/04/17 01:41:17;;;;;;;4.95;4.55;;;8.40;99.90;;;;;;5094867;28;20234;-86
2023/04/17 01:43:47;;;;;;;6.35;5.35;;;8.40;99.90;;;;;;5094590;28;20200;-86
2023/04/17 01:46:15;;;;;;;4.10;3.80;;;8.40;99.90;;;;;;5096039;28;20286;-86
2023/04/17 01:48:44;;;;;;;5.32;4.82;;;8.30;99.90;;;;;;5093887;28;20207;-85
2023/04/17 01:51:12;;;;;;;4.07;3.78;;;8.30;99.90;;;;;;5095080;28;20217;-86
2023/04/17 01:53:40;;;;;;;4.28;3.97;;;8.30;99.90;;;;;;5096129;28;20201;-86
2023/04/17 01:56:09;;;;;;;4.72;4.32;;;8.30;99.90;;;;;;5096200;28;20196;-86
2023/04/17 01:58:37;;;;;;;5.93;4.53;;;8.30;99.90;;;;;;5095584;28;20299;-85
2023/04/17 02:01:07;;;;;;;4.82;4.43;;;8.30;99.90;;;;;;5093023;28;20220;-86
2023/04/17 02:03:35;;;;;;;3.88;3.55;;;8.30;99.90;;;;;;5094092;28;20295;-85
2023/04/17 02:06:04;;;;;;;4.93;4.55;;;8.30;99.90;;;;;;5094267;28;20227;-86
2023/04/17 02:08:33;;;;;;;4.80;4.40;;;8.40;99.90;;;;;;5094626;28;20208;-85
2023/04/17 02:11:02;;;;;;;4.15;3.85;;;8.40;99.90;;;;;;5093629;28;20277;-85
2023/04/17 02:13:30;;;;;;;4.47;4.10;;;8.40;99.90;;;;;;5094509;28;20203;-85
2023/04/17 02:15:59;;;;;;;5.60;5.10;;;8.40;99.90;;;;;;5093453;28;20251;-84
2023/04/17 02:18:29;;;;;;;4.63;4.25;;;8.40;99.90;;;;;;5095568;28;20204;-84
2023/04/17 02:20:57;;;;;;;3.80;3.50;;;8.40;99.90;;;;;;5096009;28;20288;-85
2023/04/17 02:23:26;;;;;;;4.55;4.22;;;8.40;99.90;;;;;;5096087;28;20196;-86
2023/04/17 02:25:54;;;;;;;4.65;4.25;;;8.40;99.90;;;;;;5095623;28;20246;-86
2023/04/17 02:28:23;;;;;;;5.57;5.07;;;8.40;99.90;;;;;;5094556;28;20200;-85
2023/04/17 02:30:51;;;;;;;4.60;4.22;;;8.40;99.90;;;;;;5094068;28;20232;-85
2023/04/17 02:33:20;;;;;;;5.07;4.57;;;8.40;99.90;;;;;;5095529;28;20203;-86
2023/04/17 02:35:50;;;;;;;5.20;4.75;;;8.40;99.90;;;;;;5093453;28;20226;-85
2023/04/17 02:38:18;;;;;;;4.85;4.40;;;8.40;99.90;;;;;;5094643;28;20222;-85
2023/04/17 02:40:47;;;;;;;5.28;4.82;;;8.40;99.90;;;;;;5094138;28;20245;-85
2023/04/17 02:43:16;;;;;;;5.22;4.72;;;8.40;99.90;;;;;;5097533;28;20268;-84
2023/04/17 02:45:44;;;;;;;4.97;4.50;;;8.40;99.90;;;;;;5099950;28;20276;-84
2023/04/17 02:48:12;;;;;;;4.72;4.32;;;8.40;99.90;;;;;;5099512;28;20211;-84
2023/04/17 02:50:41;;;;;;;5.63;5.05;;;8.40;99.90;;;;;;5100101;28;20243;-84
2023/04/17 02:53:14;;;;;;;4.88;4.47;;;8.40;99.90;;;;;;5098848;28;20303;-84
2023/04/17 02:55:42;;;;;;;9.95;5.10;;;8.40;99.90;;;;;;5098176;28;20238;-84
2023/04/17 02:58:10;;;;;;;4.95;4.57;;;8.40;99.90;;;;;;5097228;28;20196;-83
2023/04/17 03:00:40;;;;;;;4.97;4.57;;;8.40;99.90;;;;;;5097744;28;20220;-84
2023/04/17 03:03:08;;;;;;;4.75;4.35;;;8.40;99.90;;;;;;5097967;28;20268;-84
2023/04/17 03:05:37;;;;;;;4.78;4.40;;;8.40;99.90;;;;;;5098023;28;20202;-84
2023/04/17 03:08:05;;;;;;;4.85;4.35;;;8.40;99.90;;;;;;5097551;28;20210;-83
2023/04/17 03:10:35;;;;;;;4.80;4.40;;;8.40;99.90;;;;;;5097771;28;20237;-84
2023/04/17 03:13:03;;;;;;;5.10;4.70;;;8.40;99.90;;;;;;5096820;28;20211;-84
2023/04/17 03:15:32;;;;;;;6.50;4.43;;;8.30;99.90;;;;;;5082099;28;20212;-83
2023/04/17 03:18:00;;;;;;;4.35;4.05;;;8.40;99.90;;;;;;5097967;28;20215;-84
2023/04/17 03:20:28;;;;;;;4.10;3.80;;;8.40;99.90;;;;;;5098459;28;20228;-81
2023/04/17 03:22:56;;;;;;;5.32;4.90;;;8.40;99.90;;;;;;5099077;28;20223;-84
2023/04/17 03:25:25;;;;;;;4.00;3.70;;;8.40;99.90;;;;;;5098432;28;20199;-84
2023/04/17 03:27:55;;;;;;;4.72;4.43;;;8.40;99.90;;;;;;5098608;28;20203;-84
2023/04/17 03:30:24;;;;;;;5.47;4.70;;;8.30;99.90;;;;;;5099113;28;20266;-84
2023/04/17 03:32:52;;;;;;;4.10;3.80;;;8.30;99.90;;;;;;5099071;28;20214;-84
2023/04/17 03:35:21;;;;;;;5.50;5.00;;;8.40;99.90;;;;;;5098349;28;20204;-83
2023/04/17 03:37:49;;;;;;;4.45;4.15;;;8.30;99.90;;;;;;5096938;28;20188;-85
2023/04/17 03:40:18;;;;;;;4.97;4.47;;;8.40;99.90;;;;;;5097192;28;20221;-84
2023/04/17 03:42:46;;;;;;;5.97;5.32;;;8.40;99.90;;;;;;5096960;28;20210;-83
2023/04/17 03:45:16;;;;;;;4.70;4.35;;;8.40;99.90;;;;;;5096841;28;20258;-83
2023/04/17 03:47:46;;;;;;;5.30;4.80;;;8.30;99.90;;;;;;5096050;28;20192;-84
2023/04/17 03:50:15;;;;;;;5.85;5.35;;;8.40;99.90;;;;;;5097210;28;20220;-83
2023/04/17 03:52:43;;;;;;;5.18;4.75;;;8.40;99.90;;;;;;5097755;28;20204;-84
2023/04/17 03:55:12;;;;;;;5.55;5.07;;;8.30;99.90;;;;;;5098630;28;20218;-84
2023/04/17 03:57:40;;;;;;;5.57;5.07;;;8.30;99.90;;;;;;5098398;28;20230;-83
2023/04/17 04:00:11;;;;;;;4.88;4.47;;;8.40;99.90;;;;;;5098333;28;20223;-83
2023/04/17 04:02:40;;;;;;;5.82;5.30;;;8.40;99.90;;;;;;5096702;28;20200;-83
2023/04/17 04:05:09;;;;;;;5.38;4.90;;;8.40;99.90;;;;;;5096199;28;20224;-83
2023/04/17 04:07:38;;;;;;;6.80;6.18;;;8.30;99.90;;;;;;5095612;28;20216;-83
2023/04/17 04:10:07;;;;;;;5.22;4.82;;;8.30;99.90;;;;;;5096130;28;20221;-82
2023/04/17 04:12:36;;;;;;;6.00;5.50;;;8.30;99.90;;;;;;5097085;28;20208;-81
2023/04/17 04:15:05;;;;;;;5.63;5.13;;;8.30;99.90;;;;;;5096969;28;20216;-84
2023/04/17 04:17:33;;;;;;;5.57;5.07;;;8.30;99.90;;;;;;5097489;28;20193;-84
2023/04/17 04:20:07;;;;;;;5.65;5.15;;;8.30;99.90;;;;;;5097504;28;20220;-84
2023/04/17 04:22:35;;;;;;;6.30;5.70;;;8.30;99.90;;;;;;5097995;28;20189;-84
2023/04/17 04:25:05;;;;;;;5.45;5.05;;;8.30;99.90;;;;;;5098038;28;20206;-84
2023/04/17 04:27:33;;;;;;;6.10;5.45;;;8.30;99.90;;;;;;5086094;28;20231;-84
2023/04/17 04:30:03;;;;;;;6.85;6.07;;;8.30;99.90;;;;;;5097878;28;20227;-84
2023/04/17 04:32:32;;;;;;;5.50;5.05;;;8.30;99.90;;;;;;5086571;28;20228;-83
2023/04/17 04:35:01;;;;;;;5.40;5.00;;;8.30;99.90;;;;;;5098315;28;20260;-84
2023/04/17 04:37:31;;;;;;;6.82;6.15;;;8.30;99.90;;;;;;5095427;28;20207;-84
2023/04/17 04:40:09;;;;;;;5.80;5.30;;;8.40;99.90;;;;;;5085569;28;20224;-84
2023/04/17 04:42:38;;;;;;;6.97;6.28;;;8.40;99.90;;;;;;5093342;28;20303;-84
2023/04/17 04:45:08;;;;;;;6.10;5.50;;;8.40;99.90;;;;;;5095289;28;20212;-81
2023/04/17 04:47:36;;;;;;;6.65;6.05;;;8.40;99.90;;;;;;5097128;28;20240;-86
2023/04/17 04:50:05;;;;;;;7.50;6.50;;;8.40;99.90;;;;;;5097074;28;20271;-82
2023/04/17 04:52:35;;;;;;;7.70;6.97;;;8.50;99.90;;;;;;5097284;28;20206;-84
2023/04/17 04:55:04;;;;;;;6.13;5.53;;;8.50;99.90;;;;;;5097785;28;20285;-83
2023/04/17 04:57:37;;;;;;;7.57;5.47;;;8.60;99.90;;;;;;5097304;28;20228;-91
2023/04/17 05:00:12;;;;;;;6.80;6.20;;;8.60;99.90;;;;;;5096767;28;20248;-84
2023/04/17 05:02:40;;;;;;;6.80;5.53;;;8.60;99.90;;;;;;5096848;28;20308;-81
2023/04/17 05:05:11;;;;;;;5.95;5.45;;;8.70;99.90;;;;;;5093079;28;20204;-82
2023/04/17 05:07:41;;;;;;;5.25;4.85;;;8.70;99.90;;;;;;5094876;28;20268;-82
2023/04/17 05:10:10;;;;;;;5.80;5.30;;;8.70;99.90;;;;;;5094728;28;20220;-81
2023/04/17 05:12:38;;;;;;;6.13;5.63;;;8.80;99.90;;;;;;5094333;28;20231;-80
2023/04/17 05:15:07;;;;;;;5.78;5.30;;;8.80;99.90;;;;;;5094426;28;20216;-81
2023/04/17 05:17:36;;;;;;;5.82;5.32;;;8.80;99.90;;;;;;5092716;28;20220;-81
2023/04/17 05:20:08;;;;;;;6.05;5.45;;;8.90;99.90;;;;;;5093196;28;20282;-80
2023/04/17 05:22:36;;;;;;;5.18;4.80;;;8.90;99.90;;;;;;5094882;28;20196;-82
2023/04/17 05:25:06;;;;;;;6.90;6.30;;;8.90;99.90;;;;;;5093389;28;20299;-81
2023/04/17 05:27:34;;;;;;;6.70;6.07;;;9.00;99.90;;;;;;5092411;28;20212;-82
2023/04/17 05:30:03;;;;;;;23.65;6.15;;;9.00;99.90;;;;;;5093800;28;20235;-82
2023/04/17 05:32:31;;;;;;;5.15;4.65;;;9.00;99.90;;;;;;5093487;28;20246;-83
2023/04/17 05:34:59;;;;;;;6.28;5.68;;;9.10;99.90;;;;;;5094416;28;20208;-81
2023/04/17 05:37:27;;;;;;;5.85;5.30;;;9.10;99.90;;;;;;5092982;28;20263;-82
2023/04/17 05:39:56;;;;;;;5.20;4.85;;;9.00;99.90;;;;;;5093682;28;20303;-82
2023/04/17 05:42:26;;;;;;;5.75;5.25;;;9.10;99.90;;;;;;5092983;28;20214;-80
2023/04/17 05:44:54;;;;;;;5.03;4.63;;;9.10;99.90;;;;;;5092948;28;20216;-81
2023/04/17 05:47:26;;;;;;;5.72;5.22;;;9.00;99.90;;;;;;5092159;28;20200;-81
2023/04/17 05:50:00;;;;;;;5.50;5.07;;;9.10;99.90;;;;;;5093635;28;20215;-81
2023/04/17 05:52:28;;;;;;;5.50;5.10;;;9.10;99.90;;;;;;5093765;28;20291;-81
2023/04/17 05:55:08;;;;;;;6.80;5.97;;;9.30;99.90;;;;;;5091699;28;20251;-81
2023/04/17 06:01:21;;;;;;;5.85;5.35;;;9.40;99.90;;;;;;5080759;28;20254;-81
2023/04/17 06:12:02;;;;;;;4.97;4.50;;;9.70;99.90;;;;;;5053910;28;20228;-80
2023/04/17 06:18:18;;;;;;;5.50;5.05;;;9.90;99.90;;;;;;5072868;28;20224;-80
2023/04/17 06:20:47;;;;;;;5.82;5.22;;;10.00;99.90;;;;;;5074390;28;20233;-80
2023/04/17 06:23:16;;;;;;;7.65;5.72;;;10.10;99.90;;;;;;5073341;28;20247;-80
2023/04/17 06:25:44;;;;;;;5.05;4.65;;;10.20;99.90;;;;;;5072515;28;20205;-80
2023/04/17 06:28:13;;;;;;;6.78;5.10;;;10.30;99.90;;;;;;5079544;28;20238;-79
2023/04/17 06:30:45;;;;;;;5.25;4.85;;;10.40;99.90;;;;;;5092980;28;20224;-80
2023/04/17 06:33:25;;;;;;;5.00;4.63;;;10.40;99.90;;;;;;5093908;28;20201;-81
2023/04/17 06:35:54;;;;;;;4.82;4.35;;;10.50;99.90;;;;;;5093257;28;20267;-81
2023/04/17 06:38:46;;;;;;;5.60;5.10;;;10.50;99.90;;;;;;5092104;28;20224;-80
2023/04/17 06:41:45;;;;;;;5.03;4.63;;;10.40;99.90;;;;;;5089722;28;20224;-80
2023/04/17 06:44:25;;;;;;;4.05;3.80;;;10.50;99.90;;;;;;5092308;28;20307;-81
2023/04/17 06:46:54;;;;;;;5.20;4.70;;;10.50;99.90;;;;;;5092407;28;20288;-80
2023/04/17 06:49:36;;;;;;;5.57;5.18;;;10.50;99.90;;;;;;5089976;28;20226;-80
2023/04/17 06:52:05;;;;;;;7.55;6.03;;;10.60;99.90;;;;;;5089607;28;20312;-80
2023/04/17 06:54:33;;;;;;;4.72;4.32;;;10.60;99.90;;;;;;5093103;28;20192;-80
2023/04/17 06:57:08;;;;;;;4.38;4.05;;;10.60;99.90;;;;;;5092219;28;20217;-81
2023/04/17 06:59:43;;;;;;;5.18;4.75;;;10.70;99.90;;;;;;5093082;28;20204;-80
2023/04/17 07:02:15;;;;;;;5.13;4.70;;;10.70;99.90;;;;;;5093740;28;20211;-81
2023/04/17 07:04:45;;;;;;;5.55;5.03;;;10.80;99.90;;;;;;5093661;28;20208;-81
2023/04/17 07:07:13;;;;;;;5.20;4.80;;;10.80;99.90;;;;;;5091297;28;20205;-81
2023/04/17 07:09:42;;;;;;;5.55;5.05;;;10.90;99.90;;;;;;5092887;28;20215;-80
2023/04/17 07:12:11;;;;;;;5.20;4.70;;;11.00;99.90;;;;;;5092528;28;20210;-81
2023/04/17 07:14:43;;;;;;;5.57;5.10;;;11.00;99.90;;;;;;5093074;28;20204;-80
2023/04/17 07:17:11;;;;;;;4.50;4.20;;;11.00;99.90;;;;;;5091957;28;20231;-79
2023/04/17 07:19:39;;;;;;;5.30;4.80;;;11.10;99.90;;;;;;5092766;28;20211;-81
2023/04/17 07:22:09;;;;;;;4.68;4.28;;;11.10;99.90;;;;;;5092773;28;20205;-81
2023/04/17 07:24:37;;;;;;;5.63;4.40;;;11.30;99.90;;;;;;5092633;28;20214;-81
2023/04/17 07:27:06;;;;;;;6.22;5.10;;;11.30;99.90;;;;;;5092616;28;20211;-82
2023/04/17 07:29:35;;;;;;;4.78;4.35;;;11.30;99.90;;;;;;5096049;28;20208;-82
2023/04/17 07:32:03;;;;;;;6.97;4.80;;;11.40;99.90;;;;;;5097225;28;20221;-80
2023/04/17 07:34:33;;;;;;;4.72;4.32;;;11.40;99.90;;;;;;5095473;28;20215;-83
2023/04/17 07:37:01;;;;;;;17.10;7.15;;;11.60;99.90;;;;;;5094127;28;20247;-74
2023/04/17 07:39:31;;;;;;;23.58;8.73;;;11.70;99.90;;;;;;5095993;28;20216;-78
2023/04/17 07:42:01;;;;;;;5.10;4.60;;;11.90;99.90;;;;;;5096223;28;20228;-79
2023/04/17 07:44:30;;;;;;;7.72;4.88;;;12.00;99.90;;;;;;5096202;28;20204;-81
2023/04/17 07:46:58;;;;;;;5.00;4.50;;;12.20;99.90;;;;;;5095381;28;20200;-80
2023/04/17 07:49:27;;;;;;;4.90;4.53;;;12.20;99.90;;;;;;5095841;28;20241;-78
2023/04/17 07:51:55;;;;;;;5.15;4.65;;;12.30;99.90;;;;;;5096331;28;20331;-78
2023/04/17 07:54:23;;;;;;;5.32;4.93;;;12.40;99.90;;;;;;5096149;28;20200;-78
2023/04/17 07:56:55;;;;;;;5.22;4.72;;;12.40;99.90;;;;;;5095700;28;20205;-78
2023/04/17 07:59:23;;;;;;;5.30;4.55;;;12.50;99.90;;;;;;5096072;28;20299;-78
2023/04/17 08:01:52;;;;;;;6.03;5.05;;;12.60;99.90;;;;;;5094954;28;20231;-78
2023/04/17 08:04:20;;;;;;;5.60;4.57;;;12.70;99.90;;;;;;5089062;28;20215;-78
2023/04/17 08:06:50;;;;;;;4.93;4.45;;;12.90;99.90;;;;;;5094865;28;20209;-84
2023/04/17 08:09:21;;;;;;;5.55;5.00;;;13.20;99.90;;;;;;5095492;28;20204;-80
2023/04/17 08:11:49;;;;;;;5.60;5.10;;;13.40;99.90;;;;;;5093993;28;20223;-81
2023/04/17 08:14:26;;;;;;;5.80;5.32;;;13.40;99.90;;;;;;5094217;28;20207;-80
2023/04/17 08:16:55;;;;;;;5.45;4.97;;;13.40;99.90;;;;;;5094928;28;20200;-81
2023/04/17 08:19:23;;;;;;;4.85;4.45;;;13.60;99.90;;;;;;5095061;28;20235;-81
2023/04/17 08:21:52;;;;;;;7.20;5.10;;;13.70;99.90;;;;;;5093796;28;20284;-81
2023/04/17 08:24:20;;;;;;;5.72;5.22;;;13.80;99.90;;;;;;5095252;28;20207;-82
2023/04/17 08:26:52;;;;;;;5.80;4.88;;;14.20;99.90;;;;;;5094501;28;20239;-81
2023/04/17 08:29:23;;;;;;;5.13;4.25;;;14.50;99.90;;;;;;5093390;28;20228;-80
2023/04/17 08:31:52;;;;;;;4.85;4.32;;;14.90;99.90;;;;;;5094850;28;20234;-80
2023/04/17 08:34:40;;;;;;;5.28;4.78;;;15.00;99.90;;;;;;5094482;28;20208;-80
2023/04/17 08:37:09;;;;;;;4.30;4.00;;;15.20;99.90;;;;;;5093921;28;20211;-81
2023/04/17 08:39:37;;;;;;;5.10;4.63;;;15.10;99.90;;;;;;5094615;28;20220;-81
2023/04/17 08:42:10;;;;;;;4.95;4.55;;;15.00;99.90;;;;;;5094683;28;20287;-81
2023/04/17 08:44:45;;;;;;;5.43;5.00;;;15.00;99.90;;;;;;5094692;28;20196;-81
2023/04/17 08:47:19;;;;;;;6.45;5.57;;;15.30;99.90;;;;;;5093995;28;20261;-81
2023/04/17 08:49:49;;;;;;;4.72;4.28;;;15.70;99.90;;;;;;5094137;28;20242;-80
2023/04/17 08:52:17;;;;;;;5.40;5.00;;;16.20;99.90;;;;;;5094228;28;20196;-81
2023/04/17 08:54:52;;;;;;;4.97;4.55;;;16.60;99.90;;;;;;5094875;28;20219;-81
2023/04/17 08:57:31;;;;;;;3.88;3.67;;;16.90;99.90;;;;;;5094216;28;20295;-81
2023/04/17 09:00:05;;;;;;;5.20;4.47;;;17.30;99.90;;;;;;5094703;28;20210;-81
2023/04/17 09:02:51;;;;;;;4.55;4.13;;;17.50;99.90;;;;;;5094381;28;20207;-81
2023/04/17 09:05:21;;;;;;;8.02;5.28;;;17.70;99.90;;;;;;5094733;28;20208;-80
2023/04/17 09:07:50;;;;;;;5.00;4.60;;;18.00;99.90;;;;;;5093901;28;20254;-81
2023/04/17 09:10:19;;;;;;;5.57;4.68;;;18.00;99.90;;;;;;5094029;28;20312;-81
2023/04/17 09:13:00;;;;;;;4.35;3.95;;;18.30;99.90;;;;;;5094297;28;20204;-81
2023/04/17 09:15:29;;;;;;;8.45;4.80;;;18.50;99.90;;;;;;5094257;28;20223;-82
2023/04/17 09:17:59;;;;;;;6.70;5.28;;;18.50;99.90;;;;;;5094211;28;20212;-83
2023/04/17 09:20:31;;;;;;;4.38;4.07;;;18.50;99.90;;;;;;5093873;28;20231;-82
2023/04/17 09:23:05;;;;;;;5.22;4.82;;;18.80;99.90;;;;;;5094055;28;20208;-83
2023/04/17 09:25:41;;;;;;;5.40;4.90;;;19.00;99.90;;;;;;5093937;28;20211;-83
2023/04/17 09:28:12;;;;;;;5.15;4.65;;;18.80;99.90;;;;;;5093085;28;20238;-83
2023/04/17 09:30:48;;;;;;;6.03;5.25;;;18.20;99.90;;;;;;5094331;28;20224;-83
2023/04/17 09:33:21;;;;;;;6.03;5.15;;;18.20;99.90;;;;;;5093387;28;20204;-81
2023/04/17 09:35:49;;;;;;;5.40;4.90;;;18.00;99.90;;;;;;5093700;28;20200;-82
2023/04/17 09:38:36;;;;;;;5.20;4.80;;;17.50;99.90;;;;;;5093232;28;20204;-83
2023/04/17 09:41:05;;;;;;;5.45;4.95;;;17.30;99.90;;;;;;5093287;28;20247;-83
2023/04/17 09:43:42;;;;;;;6.35;5.72;;;17.50;99.90;;;;;;5093792;28;20206;-83
2023/04/17 09:46:13;;;;;;;6.57;5.63;;;17.80;99.90;;;;;;5093113;28;20207;-83
2023/04/17 09:48:49;;;;;;;5.15;4.65;;;18.10;99.90;;;;;;5093007;28;20220;-83
2023/04/17 09:51:20;;;;;;;6.68;5.53;;;17.90;99.90;;;;;;5093365;28;20272;-82
2023/04/17 09:53:50;;;;;;;6.50;5.90;;;17.80;99.90;;;;;;5093650;28;20212;-81
2023/04/17 09:56:20;;;;;;;7.28;5.57;;;18.20;99.90;;;;;;5093563;28;20204;-83
2023/04/17 09:58:49;;;;;;;5.22;4.80;;;18.10;99.90;;;;;;5093061;28;20210;-82
2023/04/17 10:01:27;;;;;;;5.22;4.82;;;17.70;99.90;;;;;;5093769;28;20227;-80
2023/04/17 10:04:06;;;;;;;5.10;4.70;;;17.70;99.90;;;;;;5093449;28;20228;-81
2023/04/17 10:06:42;;;;;;;5.88;5.40;;;17.50;99.90;;;;;;5093612;28;20204;-81
2023/04/17 10:09:17;;;;;;;5.47;4.97;;;17.40;99.90;;;;;;5093232;28;20231;-81
2023/04/17 10:12:02;;;;;;;5.38;4.97;;;17.60;99.90;;;;;;5089482;28;20242;-80
2023/04/17 10:14:47;;;;;;;5.65;5.15;;;17.90;99.90;;;;;;5093341;28;20200;-81
2023/04/17 10:17:34;;;;;;;5.20;4.80;;;18.00;99.90;;;;;;5093386;28;20291;-83
2023/04/17 10:20:43;;;;;;;4.88;4.47;;;18.00;99.90;;;;;;5093102;28;20225;-82
2023/04/17 10:23:37;;;;;;;4.90;4.45;;;18.00;99.90;;;;;;5093702;28;20313;-81
2023/04/17 10:26:45;;;;;;;5.43;4.95;;;17.50;99.90;;;;;;5093894;28;20254;-83
2023/04/17 10:29:13;;;;;;;5.63;5.13;;;17.50;99.90;;;;;;5092884;28;20278;-82
2023/04/17 10:32:23;;;;;;;6.53;5.88;;;17.40;99.90;;;;;;5092809;28;20228;-82
2023/04/17 10:34:52;;;;;;;6.55;5.97;;;17.30;99.90;;;;;;5093619;28;20243;-83
2023/04/17 10:37:24;;;;;;;6.32;5.72;;;17.80;99.90;;;;;;5093212;28;20283;-83
2023/04/17 10:40:10;;;;;;;6.90;5.57;;;18.30;99.90;;;;;;5093627;28;20277;-81
2023/04/17 10:42:41;;;;;;;5.45;4.95;;;19.10;99.90;;;;;;5093604;28;20220;-80
2023/04/17 10:45:20;;;;;;;5.68;5.10;;;19.50;99.90;;;;;;5093052;28;20196;-81
2023/04/17 10:47:58;;;;;;;6.15;5.32;;;19.50;99.90;;;;;;5092761;28;20200;-81
2023/04/17 10:50:36;;;;;;;5.22;4.82;;;19.60;99.90;;;;;;5092828;28;20240;-81
2023/04/17 10:53:06;;;;;;;6.45;5.85;;;19.90;99.90;;;;;;5093220;28;20261;-81
2023/04/17 10:55:57;;;;;;;6.00;5.38;;;20.10;99.90;;;;;;5093008;28;20226;-82
2023/04/17 10:58:25;;;;;;;5.45;5.05;;;20.30;99.90;;;;;;5092192;28;20299;-82
2023/04/17 11:01:03;;;;;;;5.15;4.75;;;20.20;99.90;;;;;;5092906;28;20285;-82
2023/04/17 11:03:32;;;;;;;6.55;4.72;;;20.10;99.90;;;;;;5094742;28;20200;-81
2023/04/17 11:06:02;;;;;;;5.28;4.78;;;20.50;99.90;;;;;;5096759;28;20250;-81
2023/04/17 11:08:34;;;;;;;5.75;5.25;;;20.30;99.90;;;;;;5096755;28;20208;-79
2023/04/17 11:11:05;;;;;;;4.88;4.57;;;20.70;99.90;;;;;;5096131;28;20311;-83
2023/04/17 11:13:36;;;;;;;4.70;4.30;;;20.60;99.90;;;;;;5097087;28;20204;-83
2023/04/17 11:16:05;;;;;;;5.82;5.32;;;21.00;99.90;;;;;;5096295;28;20205;-83
2023/04/17 11:18:33;;;;;;;4.90;4.50;;;21.20;99.90;;;;;;5096511;28;20210;-80
2023/04/17 11:21:01;;;;;;;6.03;5.47;;;21.60;99.80;;;;;;5096371;28;20288;-83
2023/04/17 11:23:33;;;;;;;5.85;5.30;;;21.50;99.20;;;;;;5096193;28;20239;-81
2023/04/17 11:26:01;;;;;;;5.65;5.03;;;21.60;98.60;;;;;;5096923;28;20213;-81
2023/04/17 11:28:33;;;;;;;10.25;5.60;;;21.60;98.80;;;;;;5095242;28;20273;-81
2023/04/17 11:31:04;;;;;;;5.60;5.10;;;21.80;98.10;;;;;;5096173;28;20220;-81
2023/04/17 11:33:36;;;;;;;5.28;4.88;;;22.10;96.90;;;;;;5096214;28;20205;-81
2023/04/17 11:36:06;;;;;;;5.25;4.75;;;22.30;97.20;;;;;;5096562;28;20216;-81
2023/04/17 11:38:35;;;;;;;4.85;4.38;;;22.80;95.50;;;;;;5095896;28;20211;-81
2023/04/17 11:41:09;;;;;;;8.98;5.35;;;22.70;95.40;;;;;;5095818;28;20224;-81
2023/04/17 11:43:39;;;;;;;5.60;5.05;;;23.20;95.20;;;;;;5096746;28;20274;-80
2023/04/17 11:46:30;;;;;;;4.75;4.43;;;23.50;94.80;;;;;;5096348;28;20227;-82
2023/04/17 11:48:59;;;;;;;5.18;4.63;;;23.10;93.50;;;;;;5095026;28;20204;-81
2023/04/17 11:51:28;;;;;;;6.30;4.78;;;23.40;93.50;;;;;;5096167;28;20260;-81
2023/04/17 11:53:59;;;;;;;6.22;5.68;;;23.60;92.10;;;;;;5095172;28;20224;-81
2023/04/17 11:56:28;;;;;;;5.05;4.65;;;23.30;91.70;;;;;;5095563;28;20212;-81
2023/04/17 11:58:59;;;;;;;5.55;4.97;;;23.00;92.90;;;;;;5095462;28;20204;-81
2023/04/17 12:01:29;;;;;;;5.38;4.65;;;22.60;92.30;;;;;;5095747;28;20231;-81
2023/04/17 12:04:00;;;;;;;5.18;4.70;;;22.40;92.20;;;;;;5095734;28;20222;-81
2023/04/17 12:06:36;;;;;;;4.38;3.97;;;22.40;93.30;;;;;;5095923;28;20215;-81
2023/04/17 12:09:07;;;;;;;4.55;4.15;;;22.60;93.50;;;;;;5094470;28;20211;-82
2023/04/17 12:11:36;;;;;;;4.50;4.15;;;22.80;92.30;;;;;;5096436;28;20217;-82
2023/04/17 12:14:10;;;;;;;6.72;5.43;;;22.90;92.20;;;;;;5095256;28;20200;-82
2023/04/17 12:16:39;;;;;;;5.38;4.88;;;22.40;92.10;;;;;;5095989;28;20210;-82
2023/04/17 12:19:09;;;;;;;4.88;4.47;;;21.80;92.90;;;;;;5094795;28;20266;-81
2023/04/17 12:21:42;;;;;;;5.90;5.40;;;21.70;92.90;;;;;;5095542;28;20254;-82
2023/04/17 12:24:13;;;;;;;4.80;4.40;;;21.40;93.90;;;;;;5095489;28;20216;-83
2023/04/17 12:26:51;;;;;;;4.72;4.32;;;20.90;93.60;;;;;;5094993;28;20231;-82
2023/04/17 12:29:25;;;;;;;5.63;5.13;;;21.40;94.30;;;;;;5093966;28;20245;-82
2023/04/17 12:32:10;;;;;;;5.28;4.88;;;21.60;93.70;;;;;;5095728;28;20212;-82
2023/04/17 12:38:27;;;;;;;4.05;3.67;;;20.70;95.20;;;;;;5012673;28;20203;-82
2023/04/17 12:41:00;;;;;;;4.30;3.90;;;21.50;96.50;;;;;;5013606;28;20226;-83
2023/04/17 12:43:28;;;;;;;4.43;4.13;;;22.00;94.30;;;;;;5044793;28;20201;-82
2023/04/17 12:46:03;;;;;;;6.78;4.72;;;22.20;93.30;;;;;;5095167;28;20294;-82
2023/04/17 12:48:49;;;;;;;6.90;4.55;;;22.20;94.30;;;;;;5093276;28;20226;-83
2023/04/17 12:51:18;;;;;;;4.45;4.05;;;22.20;94.50;;;;;;5095040;28;20270;-82
2023/04/17 12:53:46;;;;;;;4.00;3.75;;;22.00;95.50;;;;;;5095536;28;20204;-82
2023/04/17 12:56:16;;;;;;;4.55;4.15;;;21.50;93.90;;;;;;5095087;28;20235;-82
2023/04/17 12:58:45;;;;;;;6.22;4.70;;;21.30;94.20;;;;;;5094647;28;20235;-82
2023/04/17 13:01:13;;;;;;;4.55;4.15;;;21.20;94.50;;;;;;5094633;28;20224;-83
2023/04/17 13:04:06;;;;;;;4.55;4.20;;;21.20;94.80;;;;;;5095211;28;20284;-83
2023/04/17 13:06:40;;;;;;;4.07;3.78;;;21.20;95.00;;;;;;5066568;28;20216;-83
2023/04/17 13:09:09;;;;;;;5.03;4.63;;;21.20;95.60;;;;;;5093836;28;20211;-82
2023/04/17 13:11:42;;;;;;;5.18;4.75;;;21.20;95.30;;;;;;5093420;28;20229;-82
2023/04/17 13:14:15;;;;;;;5.30;4.90;;;21.30;95.30;;;;;;5093640;28;20205;-83
2023/04/17 13:16:44;;;;;;;5.15;4.75;;;21.20;95.10;;;;;;5093894;28;20269;-83
2023/04/17 13:19:12;;;;;;;5.28;4.88;;;21.00;96.20;;;;;;5094408;28;20232;-83
2023/04/17 13:21:41;;;;;;;4.57;4.18;;;20.60;96.00;;;;;;5094319;28;20236;-83
2023/04/17 13:24:13;;;;;;;4.90;4.50;;;20.20;97.10;;;;;;5094571;28;20264;-83
2023/04/17 13:26:43;;;;;;;6.63;4.80;;;20.10;97.60;;;;;;5093138;28;20220;-83
2023/04/17 13:29:11;;;;;;;4.75;4.35;;;19.80;98.10;;;;;;5093274;28;20216;-83
2023/04/17 13:31:40;;;;;;;5.15;4.65;;;19.50;99.90;;;;;;5093832;28;20236;-83